createdAt,value
2019-03-19T00:00:33.767Z,99.90
2019-03-19T00:05:40.816Z,99.90
2019-03-19T00:10:48.251Z,99.90
2019-03-19T00:15:55.692Z,99.90
2019-03-19T00:21:02.197Z,99.90
2019-03-19T00:26:08.895Z,99.90
2019-03-19T00:31:15.339Z,99.90
2019-03-19T00:36:21.511Z,99.90
2019-03-19T00:41:28.450Z,99.90
2019-03-19T00:46:34.883Z,99.90
2019-03-19T00:51:41.467Z,99.90
2019-03-19T00:56:47.581Z,99.90
2019-03-19T01:01:53.841Z,99.90
2019-03-19T01:07:00.290Z,99.90
2019-03-19T01:12:06.974Z,99.90
2019-03-19T01:17:13.081Z,99.90
2019-03-19T01:22:19.582Z,99.90
2019-03-19T01:27:25.999Z,99.90
2019-03-19T01:32:32.471Z,99.90
2019-03-19T01:37:39.980Z,99.90
2019-03-19T01:42:47.047Z,99.90
2019-03-19T01:47:53.435Z,99.90
2019-03-19T01:53:00.131Z,99.90
2019-03-19T01:58:06.366Z,99.90
2019-03-19T02:03:13.233Z,99.90
2019-03-19T02:08:20.121Z,99.90
2019-03-19T02:13:26.955Z,99.90
2019-03-19T02:18:33.762Z,99.90
2019-03-19T02:23:40.202Z,99.90
2019-03-19T02:28:45.476Z,99.90
2019-03-19T02:33:50.799Z,99.90
2019-03-19T02:38:56.067Z,99.90
2019-03-19T02:44:01.349Z,99.90
2019-03-19T02:49:06.634Z,99.90
2019-03-19T02:54:11.916Z,99.90
2019-03-19T02:59:17.207Z,99.90
2019-03-19T03:04:22.492Z,99.90
2019-03-19T03:09:27.880Z,99.90
2019-03-19T03:14:33.183Z,99.90
2019-03-19T03:19:38.496Z,99.90
2019-03-19T03:24:43.965Z,99.90
2019-03-19T03:29:49.347Z,99.90
2019-03-19T03:34:54.683Z,99.90
2019-03-19T03:40:01.074Z,99.90
2019-03-19T03:45:07.078Z,99.90
2019-03-19T03:50:12.813Z,99.90
2019-03-19T03:55:18.117Z,99.90
2019-03-19T04:00:23.504Z,99.90
2019-03-19T04:05:28.838Z,99.90
2019-03-19T04:10:34.136Z,99.90
2019-03-19T04:15:39.415Z,99.90
2019-03-19T04:20:44.705Z,99.90
2019-03-19T04:25:50.016Z,99.90
2019-03-19T04:30:55.313Z,99.90
2019-03-19T04:36:00.679Z,99.90
2019-03-19T04:41:07.163Z,99.90
2019-03-19T04:46:12.466Z,99.90
2019-03-19T04:51:17.759Z,99.90
2019-03-19T04:56:23.056Z,99.90
2019-03-19T05:01:28.350Z,99.90
2019-03-19T05:06:33.798Z,99.90
2019-03-19T05:11:39.091Z,99.90
2019-03-19T05:16:44.399Z,99.90
2019-03-19T05:21:49.699Z,99.90
2019-03-19T05:26:55.016Z,99.90
2019-03-19T05:32:00.339Z,99.90
2019-03-19T05:37:05.654Z,99.90
2019-03-19T05:42:10.941Z,99.90
2019-03-19T05:47:16.233Z,99.90
2019-03-19T05:52:21.643Z,99.90
2019-03-19T05:57:26.988Z,99.90
2019-03-19T06:02:32.249Z,99.90
2019-03-19T06:07:37.535Z,99.90
2019-03-19T06:12:42.825Z,99.90
2019-03-19T06:17:48.189Z,99.90
2019-03-19T06:22:53.508Z,99.90
2019-03-19T06:28:00.736Z,99.90
2019-03-19T06:33:05.919Z,99.90
2019-03-19T06:38:12.196Z,99.90
2019-03-19T06:43:17.499Z,99.90
2019-03-19T06:48:22.819Z,99.90
2019-03-19T06:53:28.277Z,99.90
2019-03-19T06:58:33.523Z,99.90
2019-03-19T07:03:38.820Z,99.90
2019-03-19T07:08:44.163Z,99.90
2019-03-19T07:13:49.472Z,99.90
2019-03-19T07:18:54.781Z,99.90
2019-03-19T07:24:00.080Z,99.90
2019-03-19T07:29:05.544Z,99.90
2019-03-19T07:34:11.079Z,99.90
2019-03-19T07:39:16.451Z,99.90
2019-03-19T07:44:21.823Z,99.90
2019-03-19T07:49:27.145Z,99.90
2019-03-19T07:54:32.435Z,99.90
2019-03-19T07:59:37.800Z,99.90
2019-03-19T08:04:43.103Z,99.90
2019-03-19T08:09:48.485Z,99.90
2019-03-19T08:14:53.782Z,99.90
2019-03-19T08:19:59.084Z,99.90
2019-03-19T08:25:04.569Z,99.90
2019-03-19T08:30:12.570Z,99.90
2019-03-19T08:35:17.917Z,99.90
2019-03-19T08:40:23.969Z,99.90
2019-03-19T08:45:29.686Z,99.90
2019-03-19T08:50:35.231Z,99.90
2019-03-19T08:55:40.515Z,99.90
2019-03-19T09:00:45.808Z,99.90
2019-03-19T09:05:51.178Z,99.90
2019-03-19T09:10:56.397Z,99.90
2019-03-19T09:16:08.147Z,99.90
2019-03-19T09:21:13.439Z,99.90
2019-03-19T09:26:18.726Z,99.90
2019-03-19T09:31:24.043Z,99.90
2019-03-19T09:36:29.408Z,99.90
2019-03-19T09:41:34.909Z,99.90
2019-03-19T09:46:40.681Z,99.90
2019-03-19T09:51:45.948Z,98.90
2019-03-19T09:56:51.235Z,94.30
2019-03-19T10:01:56.748Z,91.40
2019-03-19T10:07:05.890Z,91.90
2019-03-19T10:12:09.523Z,88.10
2019-03-19T10:17:15.105Z,89.10
2019-03-19T10:22:20.400Z,92.00
2019-03-19T10:27:25.799Z,81.10
2019-03-19T10:32:31.808Z,84.00
2019-03-19T10:37:37.103Z,84.60
2019-03-19T10:42:42.410Z,75.50
2019-03-19T10:47:47.692Z,77.50
2019-03-19T10:52:53.016Z,69.50
2019-03-19T10:57:58.311Z,68.50
2019-03-19T11:03:03.631Z,69.20
2019-03-19T11:08:08.923Z,71.10
2019-03-19T11:13:14.617Z,65.80
2019-03-19T11:18:20.076Z,74.60
2019-03-19T11:23:25.805Z,76.40
2019-03-19T11:28:31.087Z,73.20
2019-03-19T11:33:36.572Z,67.70
2019-03-19T11:38:42.043Z,61.10
2019-03-19T11:43:47.416Z,57.00
2019-03-19T11:48:52.724Z,55.60
2019-03-19T11:53:58.307Z,60.60
2019-03-19T11:59:04.147Z,66.40
2019-03-19T12:04:09.815Z,68.80
2019-03-19T12:09:15.516Z,71.50
2019-03-19T12:14:21.680Z,70.00
2019-03-19T12:19:27.151Z,67.20
2019-03-19T12:24:32.923Z,69.20
2019-03-19T12:29:38.307Z,66.70
2019-03-19T12:34:43.921Z,60.80
2019-03-19T12:39:49.228Z,56.70
2019-03-19T12:44:54.582Z,57.50
2019-03-19T12:49:59.879Z,53.90
2019-03-19T12:55:06.619Z,50.80
2019-03-19T13:00:19.702Z,52.00
2019-03-19T13:05:25.004Z,51.20
2019-03-19T13:10:30.336Z,49.50
2019-03-19T13:15:35.704Z,56.20
2019-03-19T13:20:40.999Z,57.90
2019-03-19T13:25:46.306Z,60.40
2019-03-19T13:30:51.623Z,60.30
2019-03-19T13:35:56.919Z,60.60
2019-03-19T13:41:02.580Z,61.00
2019-03-19T13:46:07.850Z,56.80
2019-03-19T13:51:13.234Z,54.80
2019-03-19T13:56:18.536Z,52.30
2019-03-19T14:01:23.842Z,53.70
2019-03-19T14:06:29.429Z,55.40
2019-03-19T14:11:34.752Z,59.20
2019-03-19T14:16:40.252Z,55.70
2019-03-19T14:21:45.718Z,52.30
2019-03-19T14:26:51.079Z,48.10
2019-03-19T14:31:56.747Z,51.20
2019-03-19T14:37:02.101Z,54.40
2019-03-19T14:42:07.559Z,57.90
2019-03-19T14:47:12.926Z,56.60
2019-03-19T14:52:18.260Z,56.50
2019-03-19T14:57:23.556Z,51.30
2019-03-19T15:02:28.864Z,48.40
2019-03-19T15:07:34.169Z,45.40
2019-03-19T15:12:40.545Z,38.00
2019-03-19T15:17:45.853Z,40.80
2019-03-19T15:22:51.512Z,42.90
2019-03-19T15:27:57.294Z,46.20
2019-03-19T15:33:03.932Z,49.10
2019-03-19T15:38:12.611Z,50.70
2019-03-19T15:43:21.164Z,47.40
2019-03-19T15:48:28.052Z,50.20
2019-03-19T15:53:33.508Z,52.40
2019-03-19T15:58:38.929Z,54.80
2019-03-19T16:03:45.760Z,56.90
2019-03-19T16:08:54.493Z,57.10
2019-03-19T16:14:01.425Z,56.20
2019-03-19T16:19:07.829Z,56.30
2019-03-19T16:24:15.007Z,57.80
2019-03-19T16:29:21.565Z,57.60
2019-03-19T16:34:28.958Z,58.10
2019-03-19T16:39:35.583Z,59.90
2019-03-19T16:44:41.196Z,59.90
2019-03-19T16:49:47.021Z,59.50
2019-03-19T16:54:54.968Z,59.10
2019-03-19T17:00:01.487Z,60.10
2019-03-19T17:05:09.228Z,60.80
2019-03-19T17:10:17.709Z,61.40
2019-03-19T17:15:24.045Z,62.60
2019-03-19T17:20:29.323Z,63.90
2019-03-19T17:25:34.719Z,64.90
2019-03-19T17:30:40.239Z,66.20
2019-03-19T17:35:46.204Z,66.90
2019-03-19T17:40:51.491Z,68.30
2019-03-19T17:45:56.791Z,69.90
2019-03-19T17:51:02.620Z,71.30
2019-03-19T17:56:09.991Z,71.60
2019-03-19T18:01:17.625Z,72.50
2019-03-19T18:06:24.064Z,71.90
2019-03-19T18:11:29.338Z,74.10
2019-03-19T18:16:34.645Z,74.50
2019-03-19T18:21:39.946Z,75.30
2019-03-19T18:26:45.391Z,75.10
2019-03-19T18:31:50.684Z,75.60
2019-03-19T18:36:56.048Z,74.50
2019-03-19T18:42:01.824Z,74.70
2019-03-19T18:47:07.452Z,75.00
2019-03-19T18:52:16.170Z,76.00
2019-03-19T18:57:20.626Z,75.40
2019-03-19T19:02:25.976Z,77.40
2019-03-19T19:07:31.286Z,76.00
2019-03-19T19:12:36.587Z,77.40
2019-03-19T19:17:42.032Z,77.90
2019-03-19T19:22:47.475Z,78.70
2019-03-19T19:27:52.767Z,79.20
2019-03-19T19:33:02.037Z,78.90
2019-03-19T19:38:05.103Z,79.60
2019-03-19T19:43:10.401Z,79.00
2019-03-19T19:48:16.852Z,80.00
2019-03-19T19:53:22.155Z,80.00
2019-03-19T19:58:27.473Z,82.40
2019-03-19T20:03:32.789Z,86.60
2019-03-19T20:08:38.153Z,90.50
2019-03-19T20:13:43.456Z,92.10
2019-03-19T20:18:48.748Z,94.10
2019-03-19T20:23:54.051Z,94.60
2019-03-19T20:28:59.292Z,97.40
2019-03-19T20:34:04.663Z,99.90
2019-03-19T20:39:10.036Z,99.90
2019-03-19T20:44:15.420Z,99.90
2019-03-19T20:49:21.319Z,99.90
2019-03-19T20:54:26.691Z,99.90
2019-03-19T20:59:32.196Z,99.90
2019-03-19T21:04:38.478Z,99.90
2019-03-19T21:09:44.196Z,99.90
2019-03-19T21:14:49.921Z,99.90
2019-03-19T21:19:55.268Z,99.90
2019-03-19T21:25:00.602Z,99.90
2019-03-19T21:30:06.731Z,99.90
2019-03-19T21:35:13.881Z,99.90
2019-03-19T21:40:19.682Z,99.90
2019-03-19T21:45:25.290Z,99.90
2019-03-19T21:50:31.605Z,99.90
2019-03-19T21:55:37.388Z,99.90
2019-03-19T22:00:42.872Z,99.90
2019-03-19T22:05:50.458Z,99.90
2019-03-19T22:10:56.805Z,99.90
2019-03-19T22:16:03.084Z,99.90
2019-03-19T22:21:08.465Z,99.90
2019-03-19T22:26:14.081Z,99.90
2019-03-19T22:31:20.532Z,99.90
2019-03-19T22:36:27.087Z,99.90
2019-03-19T22:41:32.399Z,99.90
2019-03-19T22:46:37.857Z,99.90
2019-03-19T22:51:43.251Z,99.90
2019-03-19T22:56:48.822Z,99.90
2019-03-19T23:01:54.151Z,99.90
2019-03-19T23:06:59.543Z,99.90
2019-03-19T23:12:05.146Z,99.90
2019-03-19T23:17:10.787Z,99.90
2019-03-19T23:22:16.512Z,99.90
2019-03-19T23:27:22.153Z,99.90
2019-03-19T23:32:27.671Z,99.90
2019-03-19T23:37:33.424Z,99.90
2019-03-19T23:42:39.072Z,99.90
2019-03-19T23:47:45.219Z,99.90
2019-03-19T23:52:51.235Z,99.90
2019-03-19T23:57:56.700Z,99.90
